Aérodrome :
LOGIN :

S'inscrire | Disclaimer

   EN    FR    IT 

 










Légende :    VFR   VFR Marginal   IFR   IFR Intensif   IFR Très Intensif
Visi : 
Plafond : 
>= 8 km
>= 3000ft
5 à 8 km
1000 à 3000 ft
1500m à 5 km
500 à 1000 ft
800 à 1500m
200 à 500 ft
< 800m
< 200 ft
Symboles :   Orages  Brouillard  Fortes neiges  Fortes précipitations  Vent > 20 kt
SIGMETs :   Divers  Orages  Givrage  Turbulence  Onde Orograph.  Cendres Volcan.







- Altitude de l'aérodrome : 82 ft
- Code IATA : AAR


EKAH - Aarhus Tirstrup

DERNIER METAR :
  • 141450Z AUTO 34009KT 300V010 9999NDV FEW023/// 21/15 Q1008

METARs EXPIRÉS :
  • 141420Z AUTO 33009KT 9999NDV SCT020/// 20/15 Q1007
  • 141350Z AUTO 34009KT 320V020 9999NDV FEW016/// SCT018/// SCT086/// 21/16 Q1007
  • 141320Z AUTO 35010KT 320V020 9999NDV FEW058/// 20/16 Q1007
  • 141250Z AUTO 35010KT 320V020 9999NDV BKN014/// 20/16 Q1007
  • 141220Z AUTO 35011KT 300V010 9999NDV SCT015/// BKN024/// BKN100/// 20/16 Q1007

TAF TAF EKAH
Valide du 14 à 12h jusqu'au 15 à 12h UTC


141054Z 1412/1512 33008KT 9999 FEW008 SCT030
TEMPO 1412/1418 -SHRA BKN010 SCT020CB
TEMPO 1422/1506 3000 BR BKN006
Pas de NOTAMs connus pour ce terrain.



MET'MAP, la Météo Aéronautique d'un coup d'oeil ! - Copyright ORBIFLY Décembre 2007 - Disclaimer

ORBIFLY MET'MAP TEAM :

Programmation & Développement : Alexandra Zaïnal
Conception & Développement : Baudouin d'Aumeries
Co-Programmation & Développement : Marc-Olivier Méhu
Soutien technique & logistique : Manuel Goepfert

Contact : metmap@orbifly.com




SOURCES & CREDITS :

   NOAA